createdAt,value
2023-02-01T00:01:11.798Z,101867.63
2023-02-01T00:03:38.592Z,101876.63
2023-02-01T00:06:06.003Z,101880.13
2023-02-01T00:08:33.072Z,101877.50
2023-02-01T00:11:05.171Z,101880.22
2023-02-01T00:13:33.430Z,101863.31
2023-02-01T00:16:08.017Z,101859.53
2023-02-01T00:18:35.459Z,101858.31
2023-02-01T00:21:02.321Z,101846.03
2023-02-01T00:23:29.200Z,101855.09
2023-02-01T00:25:55.969Z,101854.03
2023-02-01T00:28:23.544Z,101848.06
2023-02-01T00:30:57.850Z,101840.47
2023-02-01T00:33:24.932Z,101854.94
2023-02-01T00:35:52.116Z,101853.03
2023-02-01T00:38:18.918Z,101844.09
2023-02-01T00:40:45.777Z,101835.31
2023-02-01T00:43:12.618Z,101828.47
2023-02-01T00:45:39.325Z,101816.28
2023-02-01T00:48:06.366Z,101816.94
2023-02-01T00:50:33.074Z,101809.97
2023-02-01T00:53:00.747Z,101812.66
2023-02-01T00:55:27.568Z,101807.41
2023-02-01T00:57:54.271Z,101797.16
2023-02-01T01:00:21.425Z,101814.38
2023-02-01T01:02:48.333Z,101823.94
2023-02-01T01:05:15.143Z,101810.59
2023-02-01T01:07:42.543Z,101825.91
2023-02-01T01:10:09.703Z,101831.66
2023-02-01T01:12:36.464Z,101831.13
2023-02-01T01:15:03.957Z,101834.00
2023-02-01T01:17:32.814Z,101824.22
2023-02-01T01:20:00.037Z,101836.66
2023-02-01T01:22:26.878Z,101838.53
2023-02-01T01:24:56.398Z,101844.69
2023-02-01T01:27:25.045Z,101840.69
2023-02-01T01:29:51.714Z,101838.69
2023-02-01T01:32:18.538Z,101847.25
2023-02-01T01:34:45.357Z,101839.13
2023-02-01T01:37:12.395Z,101831.94
2023-02-01T01:39:39.172Z,101839.91
2023-02-01T01:42:06.086Z,101842.31
2023-02-01T01:44:58.023Z,101849.72
2023-02-01T01:47:27.010Z,101841.94
2023-02-01T01:49:54.069Z,101848.91
2023-02-01T01:52:21.312Z,101854.25
2023-02-01T01:54:50.297Z,101858.91
2023-02-01T01:57:36.569Z,101863.66
2023-02-01T02:00:12.305Z,101862.72
2023-02-01T02:02:44.598Z,101858.41
2023-02-01T02:05:11.995Z,101862.59
2023-02-01T02:07:41.493Z,101862.78
2023-02-01T02:10:11.751Z,101875.84
2023-02-01T02:12:40.737Z,101876.38
2023-02-01T02:15:13.265Z,101876.63
2023-02-01T02:18:10.106Z,101877.22
2023-02-01T02:20:55.254Z,101863.63
2023-02-01T02:23:55.964Z,101876.38
2023-02-01T02:26:41.880Z,101873.78
2023-02-01T02:29:42.884Z,101867.09
2023-02-01T02:32:27.863Z,101872.69
2023-02-01T02:35:10.151Z,101864.09
2023-02-01T02:37:43.673Z,101848.75
2023-02-01T02:40:26.016Z,101851.94
2023-02-01T02:43:26.950Z,101851.25
2023-02-01T02:46:35.559Z,101853.81
2023-02-01T02:49:27.354Z,101860.81
2023-02-01T02:52:22.025Z,101856.69
2023-02-01T02:54:53.062Z,101855.84
2023-02-01T02:57:43.195Z,101854.41
2023-02-01T03:00:32.884Z,101830.13
2023-02-01T03:03:18.349Z,101853.38
2023-02-01T03:05:47.772Z,101841.66
2023-02-01T03:08:22.041Z,101837.00
2023-02-01T03:11:09.262Z,101850.94
2023-02-01T03:13:55.424Z,101843.47
2023-02-01T03:16:34.581Z,101829.63
2023-02-01T03:19:15.680Z,101827.59
2023-02-01T03:21:45.354Z,101831.69
2023-02-01T03:24:18.309Z,101827.72
2023-02-01T03:26:50.116Z,101817.41
2023-02-01T03:29:19.640Z,101814.13
2023-02-01T03:31:46.468Z,101813.38
2023-02-01T03:34:13.805Z,101823.91
2023-02-01T03:36:47.525Z,101825.19
2023-02-01T03:39:26.753Z,101836.84
2023-02-01T03:41:58.972Z,101841.66
2023-02-01T03:44:25.832Z,101848.72
2023-02-01T03:47:10.691Z,101840.91
2023-02-01T03:49:46.706Z,101828.81
2023-02-01T03:52:19.767Z,101830.41
2023-02-01T03:54:47.278Z,101841.72
2023-02-01T03:57:17.593Z,101837.19
2023-02-01T03:59:46.442Z,101844.13
2023-02-01T04:02:13.587Z,101843.69
2023-02-01T04:04:40.525Z,101831.28
2023-02-01T04:07:07.728Z,101833.34
2023-02-01T04:09:34.567Z,101829.75
2023-02-01T04:12:01.221Z,101838.69
2023-02-01T04:14:28.060Z,101839.69
2023-02-01T04:16:55.253Z,101834.97
2023-02-01T04:19:22.741Z,101846.34
2023-02-01T04:21:49.424Z,101842.31
2023-02-01T04:24:16.272Z,101844.47
2023-02-01T04:26:44.187Z,101841.72
2023-02-01T04:29:11.433Z,101839.28
2023-02-01T04:31:38.299Z,101837.72
2023-02-01T04:34:05.042Z,101843.38
2023-02-01T04:36:31.776Z,101859.31
2023-02-01T04:38:58.508Z,101849.31
2023-02-01T04:41:25.298Z,101845.00
2023-02-01T04:43:53.531Z,101847.69
2023-02-01T04:46:20.439Z,101843.66
2023-02-01T04:48:47.190Z,101846.63
2023-02-01T04:51:14.087Z,101853.09
2023-02-01T04:53:40.989Z,101846.34
2023-02-01T04:56:08.136Z,101851.75
2023-02-01T04:58:34.889Z,101857.97
2023-02-01T05:01:05.634Z,101840.97
2023-02-01T05:03:36.257Z,101837.84
2023-02-01T05:06:05.138Z,101846.91
2023-02-01T05:08:33.248Z,101847.16
2023-02-01T05:11:00.249Z,101838.28
2023-02-01T05:13:45.419Z,101836.03
2023-02-01T05:16:12.166Z,101834.75
2023-02-01T05:18:39.007Z,101843.41
2023-02-01T05:21:06.012Z,101836.00
2023-02-01T05:23:32.671Z,101832.78
2023-02-01T05:26:01.591Z,101831.78
2023-02-01T05:28:28.981Z,101828.22
2023-02-01T05:30:55.820Z,101834.44
2023-02-01T05:33:22.593Z,101831.75
2023-02-01T05:35:49.618Z,101838.22
2023-02-01T05:38:16.308Z,101828.94
2023-02-01T05:40:43.016Z,101827.19
2023-02-01T05:43:09.712Z,101826.94
2023-02-01T05:45:36.737Z,101829.84
2023-02-01T05:48:03.649Z,101829.66
2023-02-01T05:50:30.422Z,101826.34
2023-02-01T05:52:57.936Z,101833.78
2023-02-01T05:55:24.627Z,101839.50
2023-02-01T05:57:51.385Z,101834.94
2023-02-01T06:00:19.903Z,101840.06
2023-02-01T06:02:47.641Z,101836.97
2023-02-01T06:05:14.447Z,101841.72
2023-02-01T06:07:41.313Z,101850.78
2023-02-01T06:10:08.651Z,101840.78
2023-02-01T06:12:35.388Z,101845.22
2023-02-01T06:15:02.197Z,101853.44
2023-02-01T06:17:29.016Z,101855.84
2023-02-01T06:19:55.700Z,101844.88
2023-02-01T06:22:23.559Z,101859.38
2023-02-01T06:24:50.375Z,101854.59
2023-02-01T06:27:17.367Z,101866.78
2023-02-01T06:29:44.124Z,101850.09
2023-02-01T06:32:11.746Z,101859.19
2023-02-01T06:34:40.595Z,101854.31
2023-02-01T06:37:07.345Z,101858.19
2023-02-01T06:39:34.258Z,101851.28
2023-02-01T06:42:01.108Z,101858.94
2023-02-01T06:44:27.789Z,101851.47
2023-02-01T06:46:55.947Z,101852.88
2023-02-01T06:49:22.998Z,101856.72
2023-02-01T06:51:49.828Z,101851.03
2023-02-01T06:54:16.649Z,101855.28
2023-02-01T06:56:45.690Z,101869.75
2023-02-01T06:59:12.892Z,101870.84
2023-02-01T07:01:39.907Z,101858.25
2023-02-01T07:04:06.748Z,101867.56
2023-02-01T07:06:33.474Z,101860.50
2023-02-01T07:09:01.547Z,101861.09
2023-02-01T07:11:29.298Z,101869.88
2023-02-01T07:13:55.959Z,101861.25
2023-02-01T07:16:22.926Z,101855.88
2023-02-01T07:18:51.459Z,101853.16
2023-02-01T07:21:18.412Z,101847.47
2023-02-01T07:23:45.207Z,101860.56
2023-02-01T07:26:14.167Z,101864.50
2023-02-01T07:28:41.843Z,101858.09
2023-02-01T07:31:16.310Z,101858.81
2023-02-01T07:33:43.233Z,101857.16
2023-02-01T07:36:13.419Z,101865.47
2023-02-01T07:38:40.481Z,101866.97
2023-02-01T07:41:07.738Z,101872.75
2023-02-01T07:43:35.303Z,101876.91
2023-02-01T07:46:06.893Z,101881.31
2023-02-01T07:48:35.157Z,101879.09
2023-02-01T07:51:07.343Z,101868.84
2023-02-01T07:53:35.675Z,101874.22
2023-02-01T07:56:04.720Z,101878.28
2023-02-01T07:58:31.502Z,101878.44
2023-02-01T08:01:16.795Z,101876.81
2023-02-01T08:03:43.743Z,101893.69
2023-02-01T08:06:10.589Z,101885.78
2023-02-01T08:08:37.464Z,101893.34
2023-02-01T08:11:06.121Z,101898.50
2023-02-01T08:13:36.867Z,101890.31
2023-02-01T08:16:06.352Z,101888.91
2023-02-01T08:18:33.737Z,101898.94
2023-02-01T08:21:08.680Z,101901.06
2023-02-01T08:23:36.534Z,101909.34
2023-02-01T08:26:21.252Z,101899.75
2023-02-01T08:28:52.781Z,101910.38
2023-02-01T08:31:22.322Z,101915.25
2023-02-01T08:33:57.630Z,101914.66
2023-02-01T08:36:25.810Z,101906.38
2023-02-01T08:38:53.241Z,101916.69
2023-02-01T08:41:22.360Z,101916.47
2023-02-01T08:43:49.284Z,101935.59
2023-02-01T08:46:16.803Z,101935.53
2023-02-01T08:48:43.746Z,101922.94
2023-02-01T08:51:12.589Z,101929.38
2023-02-01T08:53:42.252Z,101916.38
2023-02-01T08:56:10.556Z,101922.16
2023-02-01T08:58:37.411Z,101931.81
2023-02-01T09:01:12.754Z,101922.91
2023-02-01T09:03:39.974Z,101910.44
2023-02-01T09:06:09.345Z,101924.44
2023-02-01T09:08:38.057Z,101910.69
2023-02-01T09:11:08.040Z,101915.66
2023-02-01T09:13:36.486Z,101910.28
2023-02-01T09:16:04.681Z,101904.53
2023-02-01T09:18:31.761Z,101901.13
2023-02-01T09:20:58.632Z,101880.66
2023-02-01T09:23:25.536Z,101889.78
2023-02-01T09:25:53.620Z,101889.25
2023-02-01T09:28:20.927Z,101891.38
2023-02-01T09:30:48.128Z,101879.53
2023-02-01T09:33:15.070Z,101885.34
2023-02-01T09:35:41.964Z,101887.34
2023-02-01T09:38:08.959Z,101887.34
2023-02-01T09:40:36.705Z,101874.16
2023-02-01T09:43:09.803Z,101867.66
2023-02-01T09:45:50.475Z,101871.75
2023-02-01T09:48:21.329Z,101887.06
2023-02-01T09:50:52.079Z,101884.13
2023-02-01T09:53:23.339Z,101889.53
2023-02-01T09:55:52.556Z,101885.19
2023-02-01T09:58:39.788Z,101887.91
2023-02-01T10:01:15.681Z,101884.28
2023-02-01T10:03:42.725Z,101876.00
2023-02-01T10:06:26.076Z,101884.94
2023-02-01T10:09:15.728Z,101886.25
2023-02-01T10:12:16.465Z,101894.09
2023-02-01T10:15:10.908Z,101896.69
2023-02-01T10:17:54.123Z,101887.28
2023-02-01T10:20:58.616Z,101898.09
2023-02-01T10:24:06.265Z,101885.66
2023-02-01T10:26:51.630Z,101882.09
2023-02-01T10:29:21.597Z,101900.19
2023-02-01T10:31:48.745Z,101889.38
2023-02-01T10:34:22.409Z,101889.50
2023-02-01T10:36:57.003Z,101882.19
2023-02-01T10:39:24.488Z,101892.63
2023-02-01T10:41:53.289Z,101887.50
2023-02-01T10:44:25.195Z,101870.78
2023-02-01T10:46:52.651Z,101876.78
2023-02-01T10:49:42.371Z,101893.06
2023-02-01T10:52:16.704Z,101886.53
2023-02-01T10:54:44.188Z,101896.94
2023-02-01T10:57:20.960Z,101894.78
2023-02-01T10:59:47.907Z,101890.06
2023-02-01T11:02:19.346Z,101878.03
2023-02-01T11:04:46.445Z,101877.00
2023-02-01T11:07:18.497Z,101899.06
2023-02-01T11:09:56.019Z,101881.53
2023-02-01T11:12:28.360Z,101890.75
2023-02-01T11:14:59.859Z,101884.16
2023-02-01T11:17:35.549Z,101874.41
2023-02-01T11:20:10.274Z,101876.88
2023-02-01T11:22:38.149Z,101855.75
2023-02-01T11:25:11.120Z,101864.31
2023-02-01T11:27:49.367Z,101854.78
2023-02-01T11:30:34.376Z,101846.09
2023-02-01T11:33:13.846Z,101836.84
2023-02-01T11:35:41.501Z,101829.47
2023-02-01T11:38:37.821Z,101826.81
2023-02-01T11:41:14.283Z,101838.16
2023-02-01T11:44:16.732Z,101837.19
2023-02-01T11:46:43.479Z,101831.56
2023-02-01T11:49:28.861Z,101850.16
2023-02-01T11:52:37.300Z,101853.16
2023-02-01T11:55:07.140Z,101834.31
2023-02-01T11:57:38.823Z,101854.94
2023-02-01T12:00:31.466Z,101841.66
2023-02-01T12:03:23.367Z,101843.69
2023-02-01T12:06:15.055Z,101840.84
2023-02-01T12:09:04.053Z,101832.34
2023-02-01T12:12:24.640Z,101826.34
2023-02-01T12:15:13.175Z,101826.94
2023-02-01T12:18:04.941Z,101813.22
2023-02-01T12:20:50.544Z,101826.19
2023-02-01T12:23:20.318Z,101828.22
2023-02-01T12:26:20.845Z,101818.28
2023-02-01T12:29:19.732Z,101817.19
2023-02-01T12:32:02.139Z,101818.06
2023-02-01T12:35:07.020Z,101814.28
2023-02-01T12:37:56.905Z,101820.63
2023-02-01T12:40:45.927Z,101814.72
2023-02-01T12:43:23.797Z,101809.56
2023-02-01T12:45:55.831Z,101796.66
2023-02-01T12:48:38.870Z,101804.81
2023-02-01T12:51:15.849Z,101799.72
2023-02-01T12:54:04.770Z,101791.13
2023-02-01T12:56:37.810Z,101795.91
2023-02-01T12:59:10.435Z,101790.72
2023-02-01T13:01:41.911Z,101792.50
2023-02-01T13:04:14.867Z,101787.16
2023-02-01T13:06:49.262Z,101789.81
2023-02-01T13:09:29.759Z,101788.31
2023-02-01T13:12:01.083Z,101780.69
2023-02-01T13:14:39.213Z,101780.75
2023-02-01T13:17:29.099Z,101772.66
2023-02-01T13:20:05.273Z,101775.50
2023-02-01T13:22:44.644Z,101763.75
2023-02-01T13:25:11.413Z,101774.69
2023-02-01T13:27:38.728Z,101761.84
2023-02-01T13:30:20.975Z,101765.53
2023-02-01T13:33:53.775Z,101765.44
2023-02-01T13:36:24.829Z,101767.72
2023-02-01T13:39:09.976Z,101772.72
2023-02-01T13:41:44.079Z,101777.28
2023-02-01T13:44:20.744Z,101767.66
2023-02-01T13:46:48.726Z,101779.56
2023-02-01T13:49:25.331Z,101773.34
2023-02-01T13:51:54.756Z,101786.25
2023-02-01T13:54:33.393Z,101781.34
2023-02-01T13:57:01.592Z,101780.06
2023-02-01T13:59:40.939Z,101772.03
2023-02-01T14:02:42.069Z,101790.88
2023-02-01T14:05:10.985Z,101793.97
2023-02-01T14:07:38.396Z,101786.34
2023-02-01T14:10:43.102Z,101808.75
2023-02-01T14:13:37.521Z,101790.13
2023-02-01T14:16:06.098Z,101785.31
2023-02-01T14:18:35.931Z,101801.84
2023-02-01T14:21:34.694Z,101802.06
2023-02-01T14:24:08.420Z,101790.50
2023-02-01T14:26:38.586Z,101797.19
2023-02-01T14:29:22.049Z,101812.19
2023-02-01T14:32:13.866Z,101808.69
2023-02-01T14:34:57.240Z,101812.06
2023-02-01T14:37:30.512Z,101806.84
2023-02-01T14:40:07.500Z,101808.47
2023-02-01T14:42:34.353Z,101817.31
2023-02-01T14:45:28.879Z,101823.78
2023-02-01T14:48:08.582Z,101816.06
2023-02-01T14:50:43.734Z,101809.31
2023-02-01T14:53:13.930Z,101816.16
2023-02-01T14:55:56.865Z,101820.19
2023-02-01T14:58:34.626Z,101826.00
2023-02-01T15:01:03.934Z,101822.84
2023-02-01T15:03:40.271Z,101828.81
2023-02-01T15:06:23.687Z,101831.97
2023-02-01T15:08:50.766Z,101835.75
2023-02-01T15:11:17.762Z,101832.56
2023-02-01T15:13:55.532Z,101847.56
2023-02-01T15:16:25.644Z,101844.41
2023-02-01T15:19:10.762Z,101851.16
2023-02-01T15:21:46.978Z,101848.84
2023-02-01T15:24:27.684Z,101845.06
2023-02-01T15:26:56.020Z,101852.31
2023-02-01T15:29:26.635Z,101848.25
2023-02-01T15:31:54.135Z,101840.25
2023-02-01T15:34:21.695Z,101846.28
2023-02-01T15:37:02.110Z,101849.44
2023-02-01T15:39:32.526Z,101841.09
2023-02-01T15:42:05.642Z,101851.31
2023-02-01T15:44:43.007Z,101859.69
2023-02-01T15:47:20.064Z,101861.44
2023-02-01T15:49:58.192Z,101852.72
2023-02-01T15:52:28.865Z,101859.47
2023-02-01T15:55:01.180Z,101861.22
2023-02-01T15:57:38.202Z,101857.78
2023-02-01T16:00:08.813Z,101862.38
2023-02-01T16:02:52.868Z,101863.00
2023-02-01T16:05:33.708Z,101871.38
2023-02-01T16:08:09.007Z,101874.19
2023-02-01T16:10:43.598Z,101864.50
2023-02-01T16:13:10.996Z,101863.25
2023-02-01T16:15:38.126Z,101869.88
2023-02-01T16:18:05.420Z,101870.38
2023-02-01T16:20:32.164Z,101869.13
2023-02-01T16:22:59.088Z,101871.38
2023-02-01T16:25:26.315Z,101870.38
2023-02-01T16:27:53.317Z,101882.81
2023-02-01T16:30:26.546Z,101878.56
2023-02-01T16:32:58.727Z,101871.22
2023-02-01T16:35:38.914Z,101885.63
2023-02-01T16:38:14.426Z,101882.03
2023-02-01T16:40:42.507Z,101882.56
2023-02-01T16:43:20.894Z,101883.66
2023-02-01T16:45:49.491Z,101890.44
2023-02-01T16:48:26.641Z,101891.44
2023-02-01T16:50:57.753Z,101896.72
2023-02-01T16:53:28.708Z,101892.66
2023-02-01T16:55:55.637Z,101904.59
2023-02-01T16:58:22.657Z,101909.66
2023-02-01T17:00:49.769Z,101899.16
2023-02-01T17:03:20.093Z,101910.84
2023-02-01T17:05:49.750Z,101913.69
2023-02-01T17:08:22.057Z,101915.38
2023-02-01T17:10:49.144Z,101906.19
2023-02-01T17:13:16.945Z,101919.06
2023-02-01T17:15:50.769Z,101914.22
2023-02-01T17:18:18.395Z,101910.59
2023-02-01T17:20:45.306Z,101904.81
2023-02-01T17:23:12.251Z,101913.59
2023-02-01T17:25:39.017Z,101913.16
2023-02-01T17:28:06.018Z,101923.28
2023-02-01T17:30:33.134Z,101917.38
2023-02-01T17:33:13.232Z,101917.00
2023-02-01T17:35:48.543Z,101923.47
2023-02-01T17:38:15.202Z,101925.34
2023-02-01T17:40:42.205Z,101922.72
2023-02-01T17:43:13.540Z,101936.09
2023-02-01T17:45:50.058Z,101934.88
2023-02-01T17:48:17.452Z,101938.56
2023-02-01T17:50:45.409Z,101934.97
2023-02-01T17:53:13.699Z,101923.63
2023-02-01T17:55:45.728Z,101915.44
2023-02-01T17:58:14.074Z,101929.75
2023-02-01T18:00:42.036Z,101927.47
2023-02-01T18:03:20.468Z,101920.41
2023-02-01T18:05:51.209Z,101925.38
2023-02-01T18:08:18.714Z,101923.94
2023-02-01T18:10:45.519Z,101911.69
2023-02-01T18:13:12.639Z,101919.97
2023-02-01T18:15:39.916Z,101904.13
2023-02-01T18:18:07.189Z,101917.16
2023-02-01T18:20:36.377Z,101925.94
2023-02-01T18:23:03.570Z,101930.16
2023-02-01T18:25:37.116Z,101919.25
2023-02-01T18:28:04.348Z,101928.47
2023-02-01T18:30:33.275Z,101931.59
2023-02-01T18:33:00.547Z,101910.25
2023-02-01T18:35:30.740Z,101925.81
2023-02-01T18:37:58.214Z,101921.28
2023-02-01T18:40:31.030Z,101925.03
2023-02-01T18:42:58.406Z,101911.28
2023-02-01T18:45:32.360Z,101913.81
2023-02-01T18:48:00.004Z,101914.19
2023-02-01T18:50:29.395Z,101914.53
2023-02-01T18:52:57.518Z,101899.13
2023-02-01T18:55:25.634Z,101909.50
2023-02-01T18:57:52.799Z,101919.94
2023-02-01T19:00:21.415Z,101910.81
2023-02-01T19:02:48.917Z,101917.81
2023-02-01T19:05:16.265Z,101917.28
2023-02-01T19:07:44.066Z,101916.22
2023-02-01T19:10:16.942Z,101913.56
2023-02-01T19:12:44.045Z,101910.88
2023-02-01T19:15:13.019Z,101907.91
2023-02-01T19:17:40.959Z,101912.88
2023-02-01T19:20:10.486Z,101915.66
2023-02-01T19:22:37.704Z,101915.94
2023-02-01T19:25:04.795Z,101907.56
2023-02-01T19:27:31.795Z,101908.25
2023-02-01T19:29:58.566Z,101913.97
2023-02-01T19:32:25.321Z,101896.22
2023-02-01T19:34:52.257Z,101911.78
2023-02-01T19:37:19.877Z,101910.94
2023-02-01T19:39:46.555Z,101910.06
2023-02-01T19:42:14.202Z,101911.41
2023-02-01T19:44:41.049Z,101912.44
2023-02-01T19:47:09.251Z,101913.41
2023-02-01T19:49:36.498Z,101915.50
2023-02-01T19:52:03.830Z,101921.75
2023-02-01T19:54:30.586Z,101920.25
2023-02-01T19:56:57.332Z,101916.53
2023-02-01T19:59:24.193Z,101913.09
2023-02-01T20:01:50.800Z,101912.34
2023-02-01T20:04:18.393Z,101922.31
2023-02-01T20:06:49.142Z,101913.31
2023-02-01T20:09:21.092Z,101926.00
2023-02-01T20:11:48.966Z,101921.00
2023-02-01T20:14:17.163Z,101925.03
2023-02-01T20:16:44.022Z,101919.00
2023-02-01T20:19:11.503Z,101921.63
2023-02-01T20:21:39.128Z,101927.47
2023-02-01T20:24:06.695Z,101928.38
2023-02-01T20:26:34.638Z,101918.47
2023-02-01T20:29:02.308Z,101924.75
2023-02-01T20:31:30.146Z,101912.84
2023-02-01T20:33:58.259Z,101927.72
2023-02-01T20:36:26.403Z,101926.09
2023-02-01T20:38:57.470Z,101923.97
2023-02-01T20:41:25.409Z,101919.59
2023-02-01T20:43:52.867Z,101922.97
2023-02-01T20:46:19.955Z,101934.59
2023-02-01T20:48:48.393Z,101925.47
2023-02-01T20:51:16.670Z,101928.41
2023-02-01T20:53:44.400Z,101921.88
2023-02-01T20:56:12.943Z,101925.16
2023-02-01T20:58:40.376Z,101915.00
2023-02-01T21:01:07.743Z,101923.81
2023-02-01T21:03:35.299Z,101925.13
2023-02-01T21:06:04.026Z,101926.28
2023-02-01T21:08:31.577Z,101923.53
2023-02-01T21:11:07.950Z,101924.16
2023-02-01T21:13:38.317Z,101913.84
2023-02-01T21:16:08.755Z,101920.72
2023-02-01T21:18:35.645Z,101923.97
2023-02-01T21:21:15.700Z,101930.66
2023-02-01T21:23:45.505Z,101927.56
2023-02-01T21:26:22.093Z,101921.06
2023-02-01T21:28:50.645Z,101930.44
2023-02-01T21:31:18.571Z,101923.19
2023-02-01T21:33:48.149Z,101927.50
2023-02-01T21:36:19.470Z,101933.06
2023-02-01T21:38:51.941Z,101933.34
2023-02-01T21:41:38.764Z,101933.03
2023-02-01T21:44:06.257Z,101933.66
2023-02-01T21:46:33.351Z,101947.59
2023-02-01T21:49:05.233Z,101941.97
2023-02-01T21:51:38.676Z,101955.41
2023-02-01T21:54:06.882Z,101944.41
2023-02-01T21:56:33.752Z,101952.84
2023-02-01T21:59:00.891Z,101943.59
2023-02-01T22:01:27.771Z,101946.22
2023-02-01T22:03:54.770Z,101944.44
2023-02-01T22:06:30.502Z,101947.50
2023-02-01T22:08:57.909Z,101955.34
2023-02-01T22:11:25.247Z,101957.84
2023-02-01T22:13:52.373Z,101956.75
2023-02-01T22:16:21.544Z,101962.47
2023-02-01T22:18:49.961Z,101952.50
2023-02-01T22:21:17.168Z,101964.22
2023-02-01T22:23:44.104Z,101965.56
2023-02-01T22:26:13.452Z,101967.91
2023-02-01T22:28:40.776Z,101970.81
2023-02-01T22:31:14.568Z,101972.69
2023-02-01T22:33:41.892Z,101966.53
2023-02-01T22:36:09.059Z,101973.50
2023-02-01T22:38:36.304Z,101972.91
2023-02-01T22:41:05.709Z,101982.69
2023-02-01T22:43:33.233Z,101975.44
2023-02-01T22:46:01.327Z,101983.72
2023-02-01T22:48:31.870Z,101980.91
2023-02-01T22:50:59.446Z,101981.19
2023-02-01T22:53:26.984Z,101981.44
2023-02-01T22:55:53.922Z,101985.78
2023-02-01T22:58:20.828Z,101987.50
2023-02-01T23:00:47.738Z,101976.50
2023-02-01T23:03:14.646Z,101983.78
2023-02-01T23:05:41.595Z,101983.44
2023-02-01T23:08:08.438Z,101980.34
2023-02-01T23:10:35.365Z,101986.88
2023-02-01T23:13:02.247Z,101988.94
2023-02-01T23:15:29.254Z,101992.66
2023-02-01T23:17:56.060Z,101988.78
2023-02-01T23:20:23.216Z,101980.81
2023-02-01T23:22:50.168Z,101985.25
2023-02-01T23:25:18.306Z,101984.81
2023-02-01T23:27:47.391Z,101988.84
2023-02-01T23:30:16.547Z,101976.09
2023-02-01T23:32:43.990Z,101976.38
2023-02-01T23:35:11.768Z,101971.88
2023-02-01T23:37:40.810Z,101988.66
2023-02-01T23:40:09.231Z,101978.88
2023-02-01T23:42:36.600Z,101975.97
2023-02-01T23:45:04.377Z,101975.00
2023-02-01T23:47:32.250Z,101988.72
2023-02-01T23:49:59.419Z,101980.97
2023-02-01T23:52:26.721Z,101977.00
2023-02-01T23:54:53.677Z,101968.06
2023-02-01T23:57:20.830Z,101983.03
